Time;durP1;ratioP1;P1;durP2;ratioP2;P2;SDS_P1;SDS_P2;PMS_P1;PMS_P2;Temp;Humidity;BMP_temperature;BMP_pressure;BME280_temperature;BME280_humidity;BME280_pressure;Samples;Min_cycle;Max_cycle;Signal;HPM_P1;HPM_P2
2022/02/14 00:00:47;;;;;;;10.32;7.22;;;5.10;65.50;;;5.18;62.81;100481.72;4934614;29;20177;-73
2022/02/14 00:03:17;;;;;;;7.38;6.25;;;5.10;60.70;;;5.03;63.37;100478.13;4934558;29;20192;-71
2022/02/14 00:05:46;;;;;;;9.25;6.60;;;5.10;61.20;;;5.01;63.56;100464.03;4934213;29;20649;-73
2022/02/14 00:08:14;;;;;;;8.63;6.57;;;5.10;62.20;;;5.12;63.14;100458.28;4933675;29;20181;-74
2022/02/14 00:10:42;;;;;;;9.05;7.68;;;5.10;60.00;;;5.05;63.17;100465.34;4933052;29;20192;-73
2022/02/14 00:13:12;;;;;;;14.07;8.55;;;5.10;59.30;;;5.12;63.29;100455.59;4934227;29;20201;-71
2022/02/14 00:15:43;;;;;;;11.55;7.60;;;5.10;59.90;;;5.20;63.09;100463.59;4934379;29;20634;-75
2022/02/14 00:18:12;;;;;;;12.27;6.97;;;5.10;59.20;;;5.04;63.43;100456.47;4934256;29;20228;-73
2022/02/14 00:20:41;;;;;;;10.77;7.15;;;5.10;58.40;;;5.20;62.86;100451.00;4934100;29;20184;-72
2022/02/14 00:23:09;;;;;;;14.15;7.10;;;5.20;57.10;;;5.25;62.38;100453.16;4934251;29;20239;-70
2022/02/14 00:25:38;;;;;;;13.63;6.80;;;5.20;56.60;;;5.21;62.32;100451.84;4948476;29;20256;-72
2022/02/14 00:28:06;;;;;;;11.57;7.97;;;5.20;55.00;;;5.22;62.48;100448.16;4932783;29;20204;-74
2022/02/14 00:30:35;;;;;;;9.57;7.15;;;5.20;54.60;;;5.29;62.12;100451.78;4933865;29;20192;-73
2022/02/14 00:33:04;;;;;;;8.10;7.15;;;5.20;53.90;;;5.34;62.30;100443.19;4934812;29;20285;-73
2022/02/14 00:35:33;;;;;;;12.27;7.18;;;5.30;53.50;;;5.29;62.24;100437.53;4933950;29;20552;-73
2022/02/14 00:38:04;;;;;;;12.13;6.57;;;5.30;53.40;;;5.21;62.39;100427.72;4935399;29;20173;-72
2022/02/14 00:40:32;;;;;;;10.50;6.97;;;5.30;53.80;;;5.26;62.54;100441.41;4935309;29;20333;-73
2022/02/14 00:43:02;;;;;;;9.32;7.25;;;5.20;53.20;;;5.18;62.84;100434.25;4934832;29;20177;-72
2022/02/14 00:45:31;;;;;;;8.75;6.75;;;5.20;54.30;;;5.19;62.34;100424.34;4933527;29;20305;-74
2022/02/14 00:48:00;;;;;;;9.73;6.85;;;5.20;53.20;;;5.18;62.54;100417.34;4953283;29;20212;-73
2022/02/14 00:50:28;;;;;;;9.05;6.13;;;5.20;52.90;;;5.24;62.11;100428.19;4938615;29;20602;-72
2022/02/14 00:52:58;;;;;;;9.88;6.95;;;5.20;52.10;;;5.15;62.10;100425.72;4938760;29;20177;-73
2022/02/14 00:55:27;;;;;;;11.52;7.80;;;5.20;51.20;;;5.03;62.57;100421.81;4938886;29;20184;-73
2022/02/14 00:57:56;;;;;;;8.73;6.90;;;5.10;52.20;;;5.17;61.98;100415.66;4938941;29;20200;-73
2022/02/14 01:00:27;;;;;;;8.43;6.20;;;5.10;51.80;;;5.26;62.07;100411.91;4939600;29;20217;-73
2022/02/14 01:02:56;;;;;;;11.75;7.78;;;5.20;50.60;;;5.15;62.08;100406.97;4939229;29;20215;-72
2022/02/14 01:05:27;;;;;;;11.10;6.35;;;5.20;50.50;;;5.03;62.67;100409.25;4939914;29;20659;-73
2022/02/14 01:07:55;;;;;;;16.10;9.85;;;5.10;51.00;;;5.11;62.38;100413.69;4938090;29;20212;-73
2022/02/14 01:10:26;;;;;;;9.10;6.68;;;5.10;52.40;;;5.12;61.97;100408.16;4938133;29;20239;-72
2022/02/14 01:12:54;;;;;;;11.95;9.35;;;5.10;49.60;;;5.08;62.05;100416.75;4936761;29;20224;-74
2022/02/14 01:15:23;;;;;;;6.78;5.85;;;5.10;49.80;;;5.07;62.10;100407.03;4937478;29;20189;-72
2022/02/14 01:17:53;;;;;;;7.65;6.25;;;5.10;48.30;;;5.08;62.05;100409.50;4938150;29;20184;-73
2022/02/14 01:20:23;;;;;;;12.70;5.95;;;5.10;48.50;;;5.07;61.71;100404.34;4954244;29;20288;-72
2022/02/14 01:22:53;;;;;;;15.27;6.82;;;5.10;46.50;;;5.02;61.80;100402.19;4938176;29;20267;-72
2022/02/14 01:25:22;;;;;;;7.80;6.55;;;5.10;46.40;;;5.00;62.10;100408.72;4938565;29;20622;-72
2022/02/14 01:27:52;;;;;;;9.48;6.80;;;5.10;46.20;;;5.03;61.49;100397.66;4939457;29;20574;-71
2022/02/14 01:30:20;;;;;;;10.27;6.72;;;5.00;45.50;;;4.96;61.79;100402.91;4938351;29;20209;-74
2022/02/14 01:32:49;;;;;;;8.27;6.55;;;5.00;45.40;;;5.12;61.41;100396.59;4941870;29;20236;-74
2022/02/14 01:35:17;;;;;;;9.43;6.03;;;5.10;44.10;;;5.05;61.37;100390.25;4940857;29;20185;-74
2022/02/14 01:37:46;;;;;;;10.45;6.47;;;5.10;43.40;;;5.07;61.28;100388.25;4940751;29;20191;-74
2022/02/14 01:40:16;;;;;;;10.55;6.35;;;5.10;42.30;;;5.09;61.16;100384.38;4940853;29;20205;-74
2022/02/14 01:42:45;;;;;;;8.63;6.05;;;5.10;42.30;;;5.09;61.34;100380.84;4955015;29;20197;-74
2022/02/14 01:45:16;;;;;;;9.48;6.72;;;5.10;40.00;;;5.05;61.14;100376.84;4938335;29;20189;-74
2022/02/14 01:47:44;;;;;;;9.93;6.72;;;5.10;41.00;;;4.97;61.48;100374.25;4940560;29;20201;-75
2022/02/14 01:50:16;;;;;;;9.70;7.00;;;5.10;41.00;;;4.95;61.36;100369.03;4940410;29;20268;-75
2022/02/14 01:52:45;;;;;;;7.00;5.88;;;5.00;41.80;;;4.89;61.32;100375.13;4940719;29;20353;-74
2022/02/14 01:55:16;;;;;;;11.65;7.50;;;5.00;40.40;;;4.85;61.53;100364.94;4940322;29;20203;-74
2022/02/14 01:57:45;;;;;;;7.30;5.55;;;4.90;41.70;;;5.03;60.36;100357.44;4939020;29;20204;-75
2022/02/14 02:00:18;;;;;;;9.32;6.45;;;5.00;38.50;;;5.13;60.38;100356.16;4938623;29;20221;-73
2022/02/14 02:02:47;;;;;;;9.93;6.20;;;5.10;37.40;;;5.12;60.04;100353.69;4939724;29;20181;-74
2022/02/14 02:05:15;;;;;;;9.18;6.28;;;5.10;35.90;;;5.01;60.19;100352.25;4940047;29;20187;-74
2022/02/14 02:07:45;;;;;;;8.52;5.82;;;5.00;35.50;;;4.88;60.87;100343.16;4942654;29;20267;-74
2022/02/14 02:10:14;;;;;;;8.00;6.25;;;5.00;36.50;;;4.91;60.17;100338.25;4944175;29;20223;-74
2022/02/14 02:12:52;;;;;;;9.13;6.15;;;4.90;36.00;;;4.89;60.45;100336.78;4941563;29;20295;-74
2022/02/14 02:15:22;;;;;;;8.50;5.70;;;4.90;35.40;;;4.91;60.51;100340.94;4940294;29;20256;-74
2022/02/14 02:17:51;;;;;;;8.35;6.30;;;4.90;35.80;;;4.95;60.32;100333.34;4940126;29;20188;-74
2022/02/14 02:20:21;;;;;;;8.85;5.25;;;4.90;34.50;;;4.86;60.35;100334.44;4940305;29;20213;-74
2022/02/14 02:22:51;;;;;;;9.95;6.22;;;4.90;33.00;;;4.92;60.08;100331.88;4941941;29;20264;-73
2022/02/14 02:25:22;;;;;;;6.15;5.55;;;4.90;33.00;;;4.88;60.11;100327.91;4941608;29;20213;-75
2022/02/14 02:27:51;;;;;;;12.00;6.25;;;4.90;32.80;;;4.94;59.54;100326.34;4941365;29;20205;-74
2022/02/14 02:30:22;;;;;;;7.30;4.93;;;4.90;32.00;;;4.85;59.99;100320.19;4939794;29;20213;-74
2022/02/14 02:32:53;;;;;;;14.32;6.63;;;4.90;32.30;;;4.94;59.79;100321.00;4938516;29;20169;-73
2022/02/14 02:35:22;;;;;;;12.45;5.85;;;4.90;31.60;;;4.87;60.06;100320.03;4937887;29;20204;-73
2022/02/14 02:37:51;;;;;;;7.88;5.05;;;4.90;31.70;;;4.82;59.85;100317.88;4938499;29;20598;-73
2022/02/14 02:40:20;;;;;;;11.20;6.13;;;4.90;30.90;;;4.90;59.60;100306.25;4938375;29;20295;-73
2022/02/14 02:42:49;;;;;;;5.22;4.72;;;4.90;30.00;;;4.87;59.45;100311.97;4939910;29;20279;-73
2022/02/14 02:45:17;;;;;;;11.55;5.70;;;4.90;29.90;;;4.73;59.46;100302.88;4938231;29;20393;-73
2022/02/14 02:47:46;;;;;;;7.53;5.30;;;4.80;29.70;;;4.67;60.18;100300.91;4939223;29;20284;-74
2022/02/14 02:50:14;;;;;;;8.43;5.38;;;4.70;31.20;;;4.72;59.70;100296.69;4938654;29;20216;-74
2022/02/14 02:52:43;;;;;;;12.32;5.93;;;4.70;30.10;;;4.65;60.25;100300.22;4938992;29;20252;-74
2022/02/14 02:55:12;;;;;;;9.18;5.75;;;4.70;32.20;;;4.53;60.41;100291.78;4938830;29;20507;-75
2022/02/14 02:57:41;;;;;;;8.48;5.43;;;4.70;32.70;;;4.38;61.31;100290.88;4938960;29;20237;-74
2022/02/14 03:00:11;;;;;;;11.38;5.60;;;4.50;34.20;;;4.48;60.95;100280.78;4939701;29;20368;-73
2022/02/14 03:02:40;;;;;;;11.95;5.72;;;4.50;34.90;;;4.37;60.79;100279.31;4939061;29;20276;-73
2022/02/14 03:05:09;;;;;;;6.57;5.50;;;4.50;34.90;;;4.35;60.86;100269.81;4938875;29;20306;-74
2022/02/14 03:07:37;;;;;;;6.80;5.65;;;4.40;35.00;;;4.32;61.59;100267.47;4937281;29;20201;-74
2022/02/14 03:10:08;;;;;;;12.48;5.68;;;4.40;36.90;;;4.32;60.94;100264.78;4938132;29;20213;-74
2022/02/14 03:12:36;;;;;;;9.85;5.40;;;4.40;35.20;;;4.25;61.12;100263.84;4939581;29;20197;-74
2022/02/14 03:15:07;;;;;;;6.57;5.32;;;4.30;35.60;;;4.25;60.67;100261.16;4939566;29;20244;-75
2022/02/14 03:17:36;;;;;;;9.68;4.72;;;4.30;34.10;;;4.22;60.69;100258.81;4938652;29;20185;-74
2022/02/14 03:20:06;;;;;;;7.47;5.13;;;4.30;33.30;;;4.26;60.72;100257.47;4939728;29;20299;-74
2022/02/14 03:22:34;;;;;;;6.53;4.60;;;4.30;33.70;;;4.32;59.69;100256.75;4940097;29;20181;-74
2022/02/14 03:25:03;;;;;;;6.05;4.25;;;4.30;31.70;;;4.37;59.52;100257.06;4940944;29;20181;-75
2022/02/14 03:27:32;;;;;;;6.15;5.28;;;4.30;30.00;;;4.32;59.80;100254.91;4942125;29;20644;-75
2022/02/14 03:30:00;;;;;;;5.55;5.05;;;4.30;29.50;;;4.41;59.50;100252.16;4944944;29;20215;-74
2022/02/14 03:32:30;;;;;;;7.60;4.80;;;4.40;29.90;;;4.31;59.32;100255.06;4957178;29;20181;-74
2022/02/14 03:35:00;;;;;;;7.20;5.60;;;4.40;28.00;;;4.38;59.18;100246.19;4957373;29;20248;-73
2022/02/14 03:37:28;;;;;;;6.43;4.57;;;4.40;27.50;;;4.36;58.62;100248.19;4954298;29;20327;-75
2022/02/14 03:39:56;;;;;;;4.90;4.20;;;4.40;26.10;;;4.36;58.95;100240.16;4954642;29;20215;-75
2022/02/14 03:42:25;;;;;;;12.18;4.82;;;4.40;26.50;;;4.52;57.84;100233.84;4951648;29;20185;-74
2022/02/14 03:44:53;;;;;;;6.50;4.68;;;4.50;25.20;;;4.45;58.62;100232.91;4944110;29;20260;-75
2022/02/14 03:47:22;;;;;;;5.88;4.13;;;4.50;25.70;;;4.45;58.00;100222.19;4940824;29;20211;-74
2022/02/14 03:49:52;;;;;;;6.05;4.53;;;4.50;24.30;;;4.30;58.68;100218.63;4952914;29;20700;-74
2022/02/14 03:52:20;;;;;;;8.30;4.45;;;4.40;24.80;;;4.28;58.40;100210.75;4937516;29;20188;-73
2022/02/14 03:54:48;;;;;;;5.72;4.95;;;4.40;24.60;;;4.30;58.99;100207.91;4936801;29;20195;-74
2022/02/14 03:57:17;;;;;;;7.80;5.15;;;4.40;25.10;;;4.36;58.32;100207.16;4936498;29;20173;-74
2022/02/14 03:59:46;;;;;;;7.93;4.68;;;4.40;23.90;;;4.24;58.70;100205.94;4937270;29;20331;-74
2022/02/14 04:02:15;;;;;;;5.15;4.65;;;4.30;24.10;;;4.36;57.98;100201.81;4937941;29;20284;-74
2022/02/14 04:04:43;;;;;;;7.47;4.30;;;4.40;22.90;;;4.26;58.35;100199.38;4938936;29;20201;-74
2022/02/14 04:07:13;;;;;;;9.45;4.63;;;4.40;23.40;;;4.26;58.72;100187.84;4937674;29;20244;-75
2022/02/14 04:09:42;;;;;;;8.70;4.50;;;4.30;23.60;;;4.16;58.69;100182.72;4938346;29;20232;-74
2022/02/14 04:12:10;;;;;;;7.07;5.22;;;4.30;23.70;;;4.26;58.25;100171.78;4938637;29;20173;-74
2022/02/14 04:14:42;;;;;;;10.13;5.70;;;4.30;24.00;;;4.40;57.72;100180.88;4938348;29;20236;-75
2022/02/14 04:17:11;;;;;;;7.60;4.43;;;4.40;22.70;;;4.46;57.63;100189.00;4938911;29;20196;-73
2022/02/14 04:19:39;;;;;;;6.57;4.75;;;4.50;22.10;;;4.43;57.33;100185.88;4937051;29;20217;-74
2022/02/14 04:22:08;;;;;;;6.65;4.50;;;4.40;21.20;;;4.47;57.31;100188.00;4938918;29;20640;-73
2022/02/14 04:24:38;;;;;;;8.23;4.70;;;4.50;21.20;;;4.41;57.18;100177.16;4939842;29;20664;-74
2022/02/14 04:27:06;;;;;;;7.78;4.18;;;4.40;20.80;;;4.34;57.51;100175.22;4940696;29;20212;-74
2022/02/14 04:29:35;;;;;;;5.82;4.35;;;4.40;20.80;;;4.36;57.24;100172.34;4939873;29;20258;-73
2022/02/14 04:32:05;;;;;;;6.72;4.18;;;4.40;20.60;;;4.42;56.92;100179.66;4941851;29;20181;-76
2022/02/14 04:34:37;;;;;;;8.32;5.03;;;4.40;19.80;;;4.52;56.78;100174.06;4940526;29;20200;-73
2022/02/14 04:37:05;;;;;;;9.80;4.72;;;4.50;19.10;;;4.51;56.43;100177.75;4940204;29;20169;-74
2022/02/14 04:39:34;;;;;;;6.65;3.90;;;4.50;18.50;;;4.45;56.74;100179.34;4955377;29;20213;-73
2022/02/14 04:42:04;;;;;;;5.57;4.57;;;4.50;18.70;;;4.55;55.82;100161.13;4940269;29;20200;-74
2022/02/14 04:44:35;;;;;;;7.18;4.13;;;4.50;17.90;;;4.43;56.60;100159.91;4954745;29;20238;-74
2022/02/14 04:47:04;;;;;;;7.45;5.30;;;4.50;18.30;;;4.53;56.34;100165.03;4937973;29;20257;-74
2022/02/14 04:49:32;;;;;;;6.60;4.57;;;4.50;17.80;;;4.64;55.56;100167.28;4939810;29;20219;-74
2022/02/14 04:52:01;;;;;;;6.82;5.30;;;4.60;17.30;;;4.68;55.49;100166.72;4943377;29;20411;-73
2022/02/14 04:54:29;;;;;;;6.35;5.15;;;4.60;16.60;;;4.55;55.85;100171.03;4948900;29;20193;-72
2022/02/14 04:56:58;;;;;;;6.32;4.40;;;4.60;16.60;;;4.50;56.42;100165.41;4948792;29;20236;-73
2022/02/14 04:59:28;;;;;;;5.88;4.85;;;4.50;17.40;;;4.60;55.55;100164.09;4950109;29;20232;-73
2022/02/14 05:01:56;;;;;;;6.38;3.83;;;4.60;16.60;;;4.58;56.15;100155.44;4949181;29;20188;-73
2022/02/14 05:04:25;;;;;;;6.45;4.57;;;4.60;16.50;;;4.45;56.22;100155.22;4947641;29;20185;-74
2022/02/14 05:06:53;;;;;;;6.75;5.10;;;4.50;16.30;;;4.62;55.64;100161.25;4945863;29;20197;-75
2022/02/14 05:09:22;;;;;;;5.95;4.38;;;4.60;16.10;;;4.50;56.00;100168.91;4947372;29;20649;-73
2022/02/14 05:11:52;;;;;;;7.20;4.55;;;4.60;16.00;;;4.66;55.12;100155.34;4945813;29;20621;-73
2022/02/14 05:14:23;;;;;;;6.72;4.40;;;4.60;15.60;;;4.51;55.98;100156.31;4940908;29;20197;-73
2022/02/14 05:16:53;;;;;;;8.13;4.70;;;4.60;15.60;;;4.58;55.34;100147.38;4941912;29;20204;-74
2022/02/14 05:19:21;;;;;;;8.43;5.35;;;4.60;15.40;;;4.53;55.37;100151.63;4942495;29;20288;-73
2022/02/14 05:21:50;;;;;;;7.57;4.63;;;4.60;15.00;;;4.66;55.09;100151.84;4944002;29;20173;-74
2022/02/14 05:24:18;;;;;;;6.72;4.63;;;4.60;15.10;;;4.54;55.35;100151.44;4947669;29;20192;-73
2022/02/14 05:26:47;;;;;;;7.63;4.80;;;4.60;14.90;;;4.55;55.58;100160.31;4946382;29;20193;-74
2022/02/14 05:29:15;;;;;;;6.78;5.47;;;4.60;15.30;;;4.52;55.60;100153.47;4941087;29;20227;-74
2022/02/14 05:31:44;;;;;;;10.05;4.90;;;4.50;15.00;;;4.58;55.41;100146.56;4942707;29;20327;-74
2022/02/14 05:34:13;;;;;;;7.80;5.03;;;4.60;15.40;;;4.49;55.73;100147.66;4946257;29;20196;-74
2022/02/14 05:36:42;;;;;;;8.00;4.95;;;4.50;15.20;;;4.41;56.02;100151.22;4946185;29;20189;-75
2022/02/14 05:39:12;;;;;;;9.10;4.90;;;4.50;15.70;;;4.41;56.25;100145.84;4945537;29;20220;-73
2022/02/14 05:41:41;;;;;;;8.02;5.15;;;4.40;15.90;;;4.36;56.31;100153.59;4945000;29;20193;-75
2022/02/14 05:44:09;;;;;;;8.05;4.75;;;4.40;16.10;;;4.22;56.91;100149.84;4944532;29;20228;-74
2022/02/14 05:46:38;;;;;;;9.68;5.40;;;4.40;17.10;;;4.23;56.59;100148.03;4944781;29;20197;-74
2022/02/14 05:49:06;;;;;;;6.00;5.00;;;4.30;16.60;;;4.26;56.56;100153.03;4944682;29;20762;-74
2022/02/14 05:51:39;;;;;;;8.57;5.30;;;4.30;17.30;;;4.22;56.58;100157.91;4943963;29;20228;-74
2022/02/14 05:54:08;;;;;;;10.95;5.45;;;4.30;16.50;;;4.17;56.65;100156.75;4945104;29;20181;-74
2022/02/14 05:56:37;;;;;;;7.20;4.90;;;4.30;16.30;;;4.02;57.41;100155.91;4945338;29;20193;-74
2022/02/14 05:59:06;;;;;;;13.82;5.88;;;4.10;17.30;;;3.93;57.26;100160.44;4944627;29;20220;-74
2022/02/14 06:01:35;;;;;;;9.95;5.45;;;4.10;17.40;;;3.94;57.19;100149.56;4945635;29;20223;-74
2022/02/14 06:04:08;;;;;;;13.48;5.80;;;4.10;17.50;;;4.04;57.53;100156.53;4946445;29;20700;-75
2022/02/14 06:06:38;;;;;;;7.93;5.80;;;4.10;18.30;;;4.07;57.31;100142.78;4945346;29;20197;-74
2022/02/14 06:09:07;;;;;;;6.03;4.55;;;4.10;18.00;;;4.00;57.31;100148.03;4943694;29;20612;-74
2022/02/14 06:11:35;;;;;;;10.55;5.53;;;4.10;18.00;;;4.03;56.74;100146.81;4944809;29;20205;-75
2022/02/14 06:14:04;;;;;;;7.82;5.47;;;4.10;17.50;;;4.01;56.93;100141.66;4943937;29;20192;-74
2022/02/14 06:16:32;;;;;;;6.60;5.40;;;4.00;17.50;;;4.00;57.34;100139.16;4945631;29;20185;-73
2022/02/14 06:19:01;;;;;;;7.97;5.50;;;4.10;17.80;;;4.08;57.28;100149.81;4944923;29;20217;-76
2022/02/14 06:21:30;;;;;;;8.85;6.18;;;4.10;18.10;;;4.01;58.08;100149.69;4946049;29;20215;-74
2022/02/14 06:23:59;;;;;;;6.97;4.68;;;4.10;18.90;;;4.06;57.18;100157.19;4945477;29;20232;-74
2022/02/14 06:26:32;;;;;;;6.57;5.97;;;4.10;17.80;;;4.09;57.64;100156.81;4960225;29;20280;-75
2022/02/14 06:29:01;;;;;;;10.00;6.70;;;4.10;18.90;;;4.01;57.49;100164.94;4944977;29;20217;-75
2022/02/14 06:31:32;;;;;;;8.95;5.45;;;4.10;18.20;;;4.03;57.43;100158.38;4965215;29;20208;-77
2022/02/14 06:34:01;;;;;;;7.00;5.18;;;4.10;18.10;;;4.00;58.53;100158.72;4966161;29;20205;-74
2022/02/14 06:36:31;;;;;;;9.93;5.90;;;4.10;19.00;;;4.11;57.08;100161.00;4950573;29;20533;-75
2022/02/14 06:39:03;;;;;;;9.68;7.05;;;4.10;18.10;;;4.17;56.90;100159.44;4950688;29;20216;-74
2022/02/14 06:41:32;;;;;;;10.55;6.38;;;4.20;17.60;;;4.22;57.09;100155.22;4949399;29;20193;-73
2022/02/14 06:44:00;;;;;;;9.85;6.60;;;4.20;18.30;;;4.14;56.79;100159.81;4958488;28;20731;-75
2022/02/14 06:46:29;;;;;;;9.13;6.68;;;4.20;17.40;;;4.30;57.23;100159.69;4945203;29;20197;-75
2022/02/14 06:49:06;;;;;;;11.48;7.88;;;4.30;17.70;;;4.40;58.10;100148.72;4944372;29;20292;-74
2022/02/14 06:51:35;;;;;;;14.95;6.93;;;4.30;18.50;;;4.42;56.30;100146.69;4944635;29;20203;-74
2022/02/14 06:54:08;;;;;;;13.43;7.53;;;4.40;16.80;;;4.40;56.31;100159.44;4944174;29;20196;-73
2022/02/14 06:56:37;;;;;;;10.98;7.75;;;4.40;16.70;;;4.38;56.71;100151.59;4944227;29;20189;-75
2022/02/14 06:59:05;;;;;;;10.55;6.60;;;4.40;17.00;;;4.31;56.33;100139.91;4958448;29;20520;-74
2022/02/14 07:01:34;;;;;;;9.43;6.18;;;4.30;16.50;;;4.39;56.30;100137.19;4943705;29;20177;-74
2022/02/14 07:04:06;;;;;;;10.98;7.32;;;4.30;16.80;;;4.43;56.96;100138.47;4944284;29;20181;-73
2022/02/14 07:06:34;;;;;;;11.55;6.05;;;4.40;17.80;;;4.54;55.89;100135.38;4944074;29;20193;-74
2022/02/14 07:09:04;;;;;;;9.95;5.90;;;4.50;16.50;;;4.59;56.09;100143.69;4944912;29;20304;-74
2022/02/14 07:11:33;;;;;;;9.55;7.00;;;4.50;16.60;;;4.77;55.39;100141.50;4944929;29;20216;-73
2022/02/14 07:14:01;;;;;;;10.15;7.25;;;4.70;15.60;;;4.84;55.05;100124.69;4943098;29;20185;-74
2022/02/14 07:16:29;;;;;;;8.70;6.65;;;4.70;14.90;;;4.76;55.32;100118.41;4942506;29;20197;-75
2022/02/14 07:18:58;;;;;;;10.98;7.60;;;4.70;14.80;;;4.78;55.10;100128.94;4942219;29;20724;-75
2022/02/14 07:21:27;;;;;;;9.20;6.55;;;4.70;14.80;;;4.80;55.24;100130.41;4942367;29;20433;-72
2022/02/14 07:23:58;;;;;;;9.57;7.15;;;4.70;14.50;;;4.80;54.93;100143.81;4953180;29;20184;-73
2022/02/14 07:26:30;;;;;;;9.88;7.10;;;4.70;14.40;;;4.85;54.89;100135.22;4949931;29;20208;-73
2022/02/14 07:28:59;;;;;;;8.93;5.85;;;4.70;14.20;;;5.17;54.33;100134.03;4937608;29;20248;-74
2022/02/14 07:31:27;;;;;;;9.18;8.30;;;4.90;14.00;;;5.15;54.75;100130.69;5063722;23;20238;-71
2022/02/14 07:33:55;;;;;;;8.02;7.20;;;5.00;13.80;;;5.21;54.08;100129.97;4955170;29;20542;-69
2022/02/14 07:36:25;;;;;;;9.30;6.55;;;5.10;13.20;;;5.21;54.41;100128.13;5001340;23;20579;-69
2022/02/14 07:38:54;;;;;;;9.25;6.35;;;5.10;13.10;;;5.26;54.19;100130.25;4966705;28;20218;-71
2022/02/14 07:41:22;;;;;;;11.95;7.15;;;5.20;12.90;;;5.44;54.34;100122.63;4959571;28;20216;-70
2022/02/14 07:43:52;;;;;;;7.68;6.75;;;5.30;13.50;;;5.51;52.91;100118.19;4955309;29;20661;-69
2022/02/14 07:46:22;;;;;;;12.82;7.00;;;5.40;11.70;;;5.71;52.83;100122.94;4946175;29;20268;-71
2022/02/14 07:48:51;;;;;;;15.60;6.28;;;5.50;11.70;;;5.75;53.41;100122.38;4951870;29;20226;-73
2022/02/14 07:51:21;;;;;;;9.02;6.88;;;5.60;11.80;;;5.82;52.30;100117.06;4955547;28;20223;-70
2022/02/14 07:53:50;;;;;;;7.93;6.47;;;5.70;10.60;;;5.84;52.12;100109.66;4955458;28;20188;-70
2022/02/14 07:56:18;;;;;;;9.85;6.13;;;5.80;10.00;;;5.83;52.57;100121.41;4955357;28;20207;-70
2022/02/14 07:58:49;;;;;;;8.52;6.20;;;5.70;9.80;;;5.89;52.03;100124.22;4943647;28;20197;-71
2022/02/14 08:01:20;;;;;;;8.07;5.68;;;5.80;9.90;;;5.88;51.95;100119.03;4954939;29;20588;-68
2022/02/14 08:03:48;;;;;;;8.30;5.88;;;5.80;9.00;;;5.93;52.32;100121.97;4954213;29;20196;-70
2022/02/14 08:06:32;;;;;;;9.45;6.85;;;5.80;9.70;;;6.13;51.48;100108.75;4936100;29;20216;-70
2022/02/14 08:09:00;;;;;;;8.98;5.80;;;5.90;9.00;;;6.16;51.42;100106.50;4936380;29;20580;-71
2022/02/14 08:11:30;;;;;;;9.75;7.05;;;6.00;8.50;;;6.25;51.32;100110.72;4935817;29;20215;-71
2022/02/14 08:13:59;;;;;;;11.20;6.63;;;6.10;8.40;;;6.31;51.10;100111.78;4936060;29;20193;-70
2022/02/14 08:16:30;;;;;;;10.60;6.00;;;6.20;7.90;;;6.37;50.72;100109.16;4936160;29;20779;-70
2022/02/14 08:19:00;;;;;;;11.18;5.57;;;6.30;7.40;;;6.29;50.69;100106.63;4936325;29;20168;-70
2022/02/14 08:21:31;;;;;;;9.60;5.90;;;6.20;6.90;;;6.45;50.73;100106.34;4936874;29;20554;-70
2022/02/14 08:24:04;;;;;;;8.10;5.72;;;6.30;7.00;;;6.57;50.61;100108.50;4937209;29;20594;-70
2022/02/14 08:26:34;;;;;;;9.13;7.28;;;6.40;7.10;;;6.73;49.92;100097.47;4938836;29;20219;-73
2022/02/14 08:29:03;;;;;;;10.60;5.90;;;6.60;6.30;;;6.67;50.38;100100.94;4936206;29;20264;-70
2022/02/14 08:31:34;;;;;;;12.27;6.07;;;6.50;6.10;;;6.76;49.50;100091.69;4935803;29;20449;-72
2022/02/14 08:34:03;;;;;;;9.90;5.95;;;6.60;5.30;;;6.80;49.41;100091.09;4937362;29;20570;-71
2022/02/14 08:36:32;;;;;;;7.68;5.53;;;6.60;4.90;;;7.01;49.06;100092.88;4944233;28;20276;-73
2022/02/14 08:39:03;;;;;;;11.98;5.00;;;6.80;4.80;;;7.12;48.67;100094.97;4942924;29;20223;-72
2022/02/14 08:41:37;;;;;;;12.10;5.38;;;6.90;3.90;;;7.12;48.69;100086.91;4943092;29;20540;-71
2022/02/14 08:44:06;;;;;;;8.73;5.80;;;7.00;3.50;;;7.23;48.42;100097.13;4938025;29;20181;-71
2022/02/14 08:46:36;;;;;;;8.98;5.32;;;7.10;3.70;;;7.39;47.90;100088.72;4940610;29;20212;-67
2022/02/14 08:49:05;;;;;;;5.55;4.85;;;7.20;3.00;;;7.43;48.18;100089.97;4960289;29;20180;-71
2022/02/14 08:51:33;;;;;;;10.45;4.63;;;7.30;2.60;;;7.52;47.53;100087.91;4958533;28;20210;-71
2022/02/14 08:54:02;;;;;;;7.90;5.22;;;7.30;2.20;;;7.67;47.26;100090.44;4966984;28;20204;-69
2022/02/14 08:56:30;;;;;;;5.88;4.63;;;7.40;1.90;;;7.83;46.78;100079.31;4964114;29;20222;-68
2022/02/14 08:58:59;;;;;;;8.77;4.88;;;7.60;1.20;;;7.91;46.33;100081.81;4966035;28;20183;-72
2022/02/14 09:01:27;;;;;;;5.25;4.63;;;7.70;1.00;;;7.92;46.35;100088.88;4968183;28;20177;-70
2022/02/14 09:04:00;;;;;;;6.60;5.18;;;7.80;1.00;;;8.05;46.16;100091.56;4953496;28;20201;-71
2022/02/14 09:06:29;;;;;;;10.65;4.55;;;7.90;1.00;;;8.05;46.22;100086.19;4945005;29;20214;-72
2022/02/14 09:09:20;;;;;;;9.18;4.32;;;7.90;1.00;;;8.13;45.60;100071.69;4948379;29;20177;-75
2022/02/14 09:11:49;;;;;;;6.55;5.18;;;7.90;1.00;;;8.31;45.49;100077.31;4946819;29;20205;-68
2022/02/14 09:14:19;;;;;;;6.57;4.18;;;8.10;1.00;;;8.41;45.51;100077.75;4955143;29;20200;-71
2022/02/14 09:16:49;;;;;;;5.45;4.18;;;8.20;1.00;;;8.32;45.43;100088.94;4942258;29;20596;-69
2022/02/14 09:19:19;;;;;;;5.38;4.25;;;8.10;1.00;;;8.29;45.33;100074.81;4955165;29;20572;-70
2022/02/14 09:21:48;;;;;;;8.02;4.28;;;8.20;1.00;;;8.47;45.34;100070.69;4939758;29;20185;-69
2022/02/14 09:24:17;;;;;;;8.35;4.65;;;8.20;1.00;;;8.52;44.93;100068.22;4951323;29;20181;-71
2022/02/14 09:26:46;;;;;;;5.35;4.43;;;8.30;1.00;;;8.61;44.67;100075.03;4958743;29;20210;-70
2022/02/14 09:29:16;;;;;;;5.20;4.30;;;8.40;1.00;;;8.63;45.14;100067.53;4958932;29;20199;-70
2022/02/14 09:31:46;;;;;;;8.63;4.50;;;8.50;1.00;;;8.76;44.85;100070.25;4958289;29;20224;-70
2022/02/14 09:34:14;;;;;;;6.25;4.43;;;8.50;1.00;;;8.75;44.65;100068.59;4948294;29;20192;-71
2022/02/14 09:36:44;;;;;;;13.23;4.15;;;8.50;1.00;;;8.93;44.70;100065.22;4955823;28;20238;-69
2022/02/14 09:39:13;;;;;;;8.55;4.13;;;8.70;1.00;;;8.92;44.31;100061.69;4938077;29;20189;-70
2022/02/14 09:41:43;;;;;;;8.20;4.35;;;8.70;1.00;;;9.00;44.09;100064.19;4936714;29;20562;-69
2022/02/14 09:44:11;;;;;;;9.55;4.40;;;8.80;1.00;;;9.18;43.72;100049.16;4938108;29;20236;-69
2022/02/14 09:46:42;;;;;;;5.53;4.30;;;8.90;1.00;;;9.16;43.73;100054.75;4938663;29;20216;-69
2022/02/14 09:49:12;;;;;;;6.43;3.97;;;9.00;1.00;;;9.27;43.51;100048.69;4957136;29;20204;-69
2022/02/14 09:51:41;;;;;;;5.47;3.90;;;9.10;1.00;;;9.31;43.43;100054.50;4957933;28;20283;-69
2022/02/14 09:54:10;;;;;;;7.32;3.67;;;9.10;1.00;;;9.46;43.36;100055.06;4950698;28;20666;-71
2022/02/14 09:56:40;;;;;;;6.05;4.00;;;9.20;1.00;;;9.46;43.50;100049.66;4938346;29;20224;-69
2022/02/14 09:59:10;;;;;;;9.10;4.07;;;9.20;1.00;;;9.62;43.45;100059.97;4950623;29;20250;-69
2022/02/14 10:01:43;;;;;;;6.90;4.72;;;9.30;1.00;;;9.68;43.13;100059.09;4958171;28;20207;-70
2022/02/14 10:04:12;;;;;;;8.23;5.13;;;9.50;1.00;;;9.78;42.72;100047.84;4949545;28;20193;-70
2022/02/14 10:06:43;;;;;;;6.50;4.80;;;9.60;1.00;;;9.90;42.66;100054.19;4942376;29;20220;-68
2022/02/14 10:09:16;;;;;;;10.57;4.95;;;9.60;1.00;;;9.96;42.84;100050.63;4939775;29;20239;-69
2022/02/14 10:12:05;;;;;;;6.82;4.32;;;9.70;1.00;;;10.07;42.55;100051.78;4939278;29;20212;-69
2022/02/14 10:14:40;;;;;;;6.68;3.15;;;9.80;1.00;;;9.97;42.29;100058.47;4939384;29;20181;-70
2022/02/14 10:17:12;;;;;;;10.85;4.22;;;9.80;1.00;;;10.16;42.38;100053.19;4939832;29;20223;-69
2022/02/14 10:19:56;;;;;;;4.75;4.13;;;9.90;1.00;;;10.21;42.05;100042.56;4939410;29;20185;-69
2022/02/14 10:22:33;;;;;;;7.07;4.32;;;9.90;1.00;;;10.32;42.19;100036.41;4939713;29;20185;-69
2022/02/14 10:25:03;;;;;;;7.45;4.10;;;10.00;1.00;;;10.40;42.27;100044.28;4938295;29;20199;-70
2022/02/14 10:27:35;;;;;;;5.97;4.00;;;10.20;1.00;;;10.56;41.89;100029.31;4938263;29;20217;-70
2022/02/14 10:30:12;;;;;;;7.13;4.82;;;10.30;1.00;;;10.52;41.60;100031.66;4954919;29;20709;-69
2022/02/14 10:32:52;;;;;;;5.32;4.65;;;10.40;1.00;;;10.54;41.70;100034.97;4957307;28;20200;-67
2022/02/14 10:35:24;;;;;;;6.93;4.73;;;10.30;1.00;;;10.64;41.43;100026.34;4955237;29;20603;-68